sensor_id;sensor_type;location;lat;lon;timestamp;temperature;humidity
15003;DHT22;7597;53.590;10.020;2022-09-13T00:00:15;16.40;1.00
15003;DHT22;7597;53.590;10.020;2022-09-13T00:02:42;16.40;1.00
15003;DHT22;7597;53.590;10.020;2022-09-13T00:05:09;16.40;1.00
15003;DHT22;7597;53.590;10.020;2022-09-13T00:07:35;16.30;1.00
15003;DHT22;7597;53.590;10.020;2022-09-13T00:10:03;16.30;1.00
15003;DHT22;7597;53.590;10.020;2022-09-13T00:12:30;16.00;1.00
15003;DHT22;7597;53.590;10.020;2022-09-13T00:14:57;16.30;1.00
15003;DHT22;7597;53.590;10.020;2022-09-13T00:17:24;16.30;1.00
15003;DHT22;7597;53.590;10.020;2022-09-13T00:19:50;16.30;1.00
15003;DHT22;7597;53.590;10.020;2022-09-13T00:22:17;16.30;1.00
15003;DHT22;7597;53.590;10.020;2022-09-13T00:24:44;16.30;1.00
15003;DHT22;7597;53.590;10.020;2022-09-13T00:27:11;16.30;1.00
15003;DHT22;7597;53.590;10.020;2022-09-13T00:29:37;16.30;1.00
15003;DHT22;7597;53.590;10.020;2022-09-13T00:32:04;16.30;1.00
15003;DHT22;7597;53.590;10.020;2022-09-13T00:34:31;16.30;1.00
15003;DHT22;7597;53.590;10.020;2022-09-13T00:36:58;16.30;1.00
15003;DHT22;7597;53.590;10.020;2022-09-13T00:39:25;16.20;1.00
15003;DHT22;7597;53.590;10.020;2022-09-13T00:41:51;16.10;1.00
15003;DHT22;7597;53.590;10.020;2022-09-13T00:46:56;15.90;1.00
15003;DHT22;7597;53.590;10.020;2022-09-13T00:49:27;15.70;1.00
15003;DHT22;7597;53.590;10.020;2022-09-13T00:51:51;15.60;1.00
15003;DHT22;7597;53.590;10.020;2022-09-13T00:54:17;15.50;1.00
15003;DHT22;7597;53.590;10.020;2022-09-13T00:56:44;15.40;1.00
15003;DHT22;7597;53.590;10.020;2022-09-13T00:59:12;15.30;1.00
15003;DHT22;7597;53.590;10.020;2022-09-13T01:01:42;15.30;1.00
15003;DHT22;7597;53.590;10.020;2022-09-13T01:04:06;15.20;1.00
15003;DHT22;7597;53.590;10.020;2022-09-13T01:06:33;15.20;1.00
15003;DHT22;7597;53.590;10.020;2022-09-13T01:09:00;15.20;1.00
15003;DHT22;7597;53.590;10.020;2022-09-13T01:11:47;15.20;1.00
15003;DHT22;7597;53.590;10.020;2022-09-13T01:14:13;15.10;1.00
15003;DHT22;7597;53.590;10.020;2022-09-13T01:16:40;15.10;1.00
15003;DHT22;7597;53.590;10.020;2022-09-13T01:19:07;15.20;1.00
15003;DHT22;7597;53.590;10.020;2022-09-13T01:25:03;15.30;1.00
15003;DHT22;7597;53.590;10.020;2022-09-13T01:28:49;15.20;1.00
15003;DHT22;7597;53.590;10.020;2022-09-13T01:30:23;15.30;1.00
15003;DHT22;7597;53.590;10.020;2022-09-13T01:32:56;15.30;1.00
15003;DHT22;7597;53.590;10.020;2022-09-13T01:35:24;15.30;1.00
15003;DHT22;7597;53.590;10.020;2022-09-13T01:38:13;15.30;1.00
15003;DHT22;7597;53.590;10.020;2022-09-13T01:40:45;15.40;1.00
15003;DHT22;7597;53.590;10.020;2022-09-13T01:43:25;15.40;1.00
15003;DHT22;7597;53.590;10.020;2022-09-13T01:46:08;15.40;1.00
15003;DHT22;7597;53.590;10.020;2022-09-13T01:48:43;15.40;1.00
15003;DHT22;7597;53.590;10.020;2022-09-13T01:51:05;15.50;1.00
15003;DHT22;7597;53.590;10.020;2022-09-13T01:53:39;15.50;1.00
15003;DHT22;7597;53.590;10.020;2022-09-13T01:56:05;15.50;1.00
15003;DHT22;7597;53.590;10.020;2022-09-13T02:01:29;15.60;1.00
15003;DHT22;7597;53.590;10.020;2022-09-13T02:03:58;15.60;1.00
15003;DHT22;7597;53.590;10.020;2022-09-13T02:06:25;15.60;1.00
15003;DHT22;7597;53.590;10.020;2022-09-13T02:08:54;15.60;1.00
15003;DHT22;7597;53.590;10.020;2022-09-13T02:11:20;15.60;1.00
15003;DHT22;7597;53.590;10.020;2022-09-13T02:13:50;15.60;1.00
15003;DHT22;7597;53.590;10.020;2022-09-13T02:16:19;15.60;1.00
15003;DHT22;7597;53.590;10.020;2022-09-13T02:18:48;15.60;1.00
15003;DHT22;7597;53.590;10.020;2022-09-13T02:21:18;15.60;1.00
15003;DHT22;7597;53.590;10.020;2022-09-13T02:23:45;15.60;1.00
15003;DHT22;7597;53.590;10.020;2022-09-13T02:26:11;15.70;1.00
15003;DHT22;7597;53.590;10.020;2022-09-13T02:28:38;15.80;1.00
15003;DHT22;7597;53.590;10.020;2022-09-13T02:31:03;15.80;1.00
15003;DHT22;7597;53.590;10.020;2022-09-13T02:33:32;15.80;1.00
15003;DHT22;7597;53.590;10.020;2022-09-13T02:36:00;15.90;1.00
15003;DHT22;7597;53.590;10.020;2022-09-13T02:38:31;15.90;1.00
15003;DHT22;7597;53.590;10.020;2022-09-13T02:41:00;15.90;1.00
15003;DHT22;7597;53.590;10.020;2022-09-13T02:43:42;15.90;1.00
15003;DHT22;7597;53.590;10.020;2022-09-13T02:46:17;16.00;1.00
15003;DHT22;7597;53.590;10.020;2022-09-13T02:48:49;15.90;1.00
15003;DHT22;7597;53.590;10.020;2022-09-13T02:51:23;16.00;1.00
15003;DHT22;7597;53.590;10.020;2022-09-13T02:53:55;16.00;1.00
15003;DHT22;7597;53.590;10.020;2022-09-13T02:56:23;16.10;1.00
15003;DHT22;7597;53.590;10.020;2022-09-13T02:58:51;16.00;1.00
15003;DHT22;7597;53.590;10.020;2022-09-13T03:01:16;16.10;1.00
15003;DHT22;7597;53.590;10.020;2022-09-13T03:03:42;16.10;1.00
15003;DHT22;7597;53.590;10.020;2022-09-13T03:06:09;16.00;1.00
15003;DHT22;7597;53.590;10.020;2022-09-13T03:08:36;16.10;1.00
15003;DHT22;7597;53.590;10.020;2022-09-13T03:11:24;16.00;1.00
15003;DHT22;7597;53.590;10.020;2022-09-13T03:14:27;16.00;1.00
15003;DHT22;7597;53.590;10.020;2022-09-13T03:19:52;16.10;1.00
15003;DHT22;7597;53.590;10.020;2022-09-13T03:22:26;16.10;1.00
15003;DHT22;7597;53.590;10.020;2022-09-13T03:25:18;16.10;1.00
15003;DHT22;7597;53.590;10.020;2022-09-13T03:28:00;16.10;1.00
15003;DHT22;7597;53.590;10.020;2022-09-13T03:30:22;16.20;1.00
15003;DHT22;7597;53.590;10.020;2022-09-13T03:32:59;16.20;1.00
15003;DHT22;7597;53.590;10.020;2022-09-13T03:35:40;16.20;1.00
15003;DHT22;7597;53.590;10.020;2022-09-13T03:38:16;16.20;1.00
15003;DHT22;7597;53.590;10.020;2022-09-13T03:40:46;16.20;1.00
15003;DHT22;7597;53.590;10.020;2022-09-13T03:43:13;16.20;1.00
15003;DHT22;7597;53.590;10.020;2022-09-13T03:45:42;16.20;1.00
15003;DHT22;7597;53.590;10.020;2022-09-13T03:48:07;16.30;1.00
15003;DHT22;7597;53.590;10.020;2022-09-13T03:50:33;16.30;1.00
15003;DHT22;7597;53.590;10.020;2022-09-13T03:53:07;16.30;1.00
15003;DHT22;7597;53.590;10.020;2022-09-13T03:55:27;16.30;1.00
15003;DHT22;7597;53.590;10.020;2022-09-13T03:57:53;16.20;1.00
15003;DHT22;7597;53.590;10.020;2022-09-13T04:00:21;16.20;1.00
15003;DHT22;7597;53.590;10.020;2022-09-13T04:02:48;16.20;1.00
15003;DHT22;7597;53.590;10.020;2022-09-13T04:05:15;16.20;1.00
15003;DHT22;7597;53.590;10.020;2022-09-13T04:07:42;16.20;1.00
15003;DHT22;7597;53.590;10.020;2022-09-13T04:10:09;16.30;1.00
15003;DHT22;7597;53.590;10.020;2022-09-13T04:12:35;16.30;1.00
15003;DHT22;7597;53.590;10.020;2022-09-13T04:15:03;16.30;1.00
15003;DHT22;7597;53.590;10.020;2022-09-13T04:17:29;16.30;1.00
15003;DHT22;7597;53.590;10.020;2022-09-13T04:19:56;16.30;1.00
15003;DHT22;7597;53.590;10.020;2022-09-13T04:22:24;16.30;1.00
15003;DHT22;7597;53.590;10.020;2022-09-13T04:24:51;16.80;1.00
15003;DHT22;7597;53.590;10.020;2022-09-13T04:27:17;16.30;1.00
15003;DHT22;7597;53.590;10.020;2022-09-13T04:29:44;16.30;1.00
15003;DHT22;7597;53.590;10.020;2022-09-13T04:32:11;16.20;1.00
15003;DHT22;7597;53.590;10.020;2022-09-13T04:34:37;16.20;1.00
15003;DHT22;7597;53.590;10.020;2022-09-13T04:37:04;16.10;1.00
15003;DHT22;7597;53.590;10.020;2022-09-13T04:39:31;15.90;1.00
15003;DHT22;7597;53.590;10.020;2022-09-13T04:41:58;15.70;1.00
15003;DHT22;7597;53.590;10.020;2022-09-13T04:44:24;15.60;1.00
15003;DHT22;7597;53.590;10.020;2022-09-13T04:46:51;15.50;25.70
15003;DHT22;7597;53.590;10.020;2022-09-13T04:49:18;15.40;79.10
15003;DHT22;7597;53.590;10.020;2022-09-13T04:51:45;15.30;92.00
15003;DHT22;7597;53.590;10.020;2022-09-13T04:54:12;15.30;98.10
15003;DHT22;7597;53.590;10.020;2022-09-13T04:56:39;15.20;99.90
15003;DHT22;7597;53.590;10.020;2022-09-13T04:59:06;15.20;99.90
15003;DHT22;7597;53.590;10.020;2022-09-13T05:01:32;15.10;99.90
15003;DHT22;7597;53.590;10.020;2022-09-13T05:03:59;15.10;99.90
15003;DHT22;7597;53.590;10.020;2022-09-13T05:06:26;15.10;99.90
15003;DHT22;7597;53.590;10.020;2022-09-13T05:08:53;15.10;99.90
15003;DHT22;7597;53.590;10.020;2022-09-13T05:11:21;15.10;99.90
15003;DHT22;7597;53.590;10.020;2022-09-13T05:13:48;15.10;99.90
15003;DHT22;7597;53.590;10.020;2022-09-13T05:16:14;15.10;99.90
15003;DHT22;7597;53.590;10.020;2022-09-13T05:18:41;15.10;99.90
15003;DHT22;7597;53.590;10.020;2022-09-13T05:21:08;15.10;99.90
15003;DHT22;7597;53.590;10.020;2022-09-13T05:23:35;15.10;99.90
15003;DHT22;7597;53.590;10.020;2022-09-13T05:26:02;15.10;99.90
15003;DHT22;7597;53.590;10.020;2022-09-13T05:28:29;15.10;99.90
15003;DHT22;7597;53.590;10.020;2022-09-13T05:31:00;15.10;99.90
15003;DHT22;7597;53.590;10.020;2022-09-13T05:33:26;15.10;99.90
15003;DHT22;7597;53.590;10.020;2022-09-13T05:35:52;15.10;99.90
15003;DHT22;7597;53.590;10.020;2022-09-13T05:38:19;15.10;99.90
15003;DHT22;7597;53.590;10.020;2022-09-13T05:40:55;15.10;99.90
15003;DHT22;7597;53.590;10.020;2022-09-13T05:43:29;15.10;99.90
15003;DHT22;7597;53.590;10.020;2022-09-13T05:46:06;15.20;99.90
15003;DHT22;7597;53.590;10.020;2022-09-13T05:48:33;15.20;99.90
15003;DHT22;7597;53.590;10.020;2022-09-13T05:51:16;15.20;99.90
15003;DHT22;7597;53.590;10.020;2022-09-13T05:53:44;15.20;99.90
15003;DHT22;7597;53.590;10.020;2022-09-13T05:56:13;15.30;99.90
15003;DHT22;7597;53.590;10.020;2022-09-13T05:58:41;15.30;99.90
15003;DHT22;7597;53.590;10.020;2022-09-13T06:01:07;15.30;99.90
15003;DHT22;7597;53.590;10.020;2022-09-13T06:03:34;15.40;99.90
15003;DHT22;7597;53.590;10.020;2022-09-13T06:06:01;15.50;99.90
15003;DHT22;7597;53.590;10.020;2022-09-13T06:08:29;15.60;99.90
15003;DHT22;7597;53.590;10.020;2022-09-13T06:10:58;15.60;99.90
15003;DHT22;7597;53.590;10.020;2022-09-13T06:13:25;15.60;99.90
15003;DHT22;7597;53.590;10.020;2022-09-13T06:15:51;15.60;99.90
15003;DHT22;7597;53.590;10.020;2022-09-13T06:18:18;15.60;99.90
15003;DHT22;7597;53.590;10.020;2022-09-13T06:20:45;15.70;99.90
15003;DHT22;7597;53.590;10.020;2022-09-13T06:23:12;15.70;99.90
15003;DHT22;7597;53.590;10.020;2022-09-13T06:25:38;15.70;99.90
15003;DHT22;7597;53.590;10.020;2022-09-13T06:28:05;15.80;99.90
15003;DHT22;7597;53.590;10.020;2022-09-13T06:30:32;15.90;99.90
15003;DHT22;7597;53.590;10.020;2022-09-13T06:32:59;15.90;99.90
15003;DHT22;7597;53.590;10.020;2022-09-13T06:35:26;15.90;99.90
15003;DHT22;7597;53.590;10.020;2022-09-13T06:37:55;16.00;99.90
15003;DHT22;7597;53.590;10.020;2022-09-13T06:40:21;16.10;99.90
15003;DHT22;7597;53.590;10.020;2022-09-13T06:42:48;16.30;99.90
15003;DHT22;7597;53.590;10.020;2022-09-13T06:45:15;16.50;99.90
15003;DHT22;7597;53.590;10.020;2022-09-13T06:47:41;17.00;99.90
15003;DHT22;7597;53.590;10.020;2022-09-13T06:50:08;17.70;99.90
15003;DHT22;7597;53.590;10.020;2022-09-13T06:52:35;18.30;99.90
15003;DHT22;7597;53.590;10.020;2022-09-13T06:55:02;18.60;99.90
15003;DHT22;7597;53.590;10.020;2022-09-13T06:57:30;18.40;99.90
15003;DHT22;7597;53.590;10.020;2022-09-13T06:59:56;18.40;99.90
15003;DHT22;7597;53.590;10.020;2022-09-13T07:02:23;18.20;91.20
15003;DHT22;7597;53.590;10.020;2022-09-13T07:04:50;18.00;52.70
15003;DHT22;7597;53.590;10.020;2022-09-13T07:07:16;17.80;57.40
15003;DHT22;7597;53.590;10.020;2022-09-13T07:09:43;17.80;74.00
15003;DHT22;7597;53.590;10.020;2022-09-13T07:12:11;18.30;79.40
15003;DHT22;7597;53.590;10.020;2022-09-13T07:14:37;18.30;80.00
15003;DHT22;7597;53.590;10.020;2022-09-13T07:17:04;18.30;30.10
15003;DHT22;7597;53.590;10.020;2022-09-13T07:19:31;18.20;1.00
15003;DHT22;7597;53.590;10.020;2022-09-13T07:21:58;18.20;9.20
15003;DHT22;7597;53.590;10.020;2022-09-13T07:24:24;17.90;1.00
15003;DHT22;7597;53.590;10.020;2022-09-13T07:26:51;17.70;1.00
15003;DHT22;7597;53.590;10.020;2022-09-13T07:29:18;17.70;16.90
15003;DHT22;7597;53.590;10.020;2022-09-13T07:31:45;17.70;50.10
15003;DHT22;7597;53.590;10.020;2022-09-13T07:34:13;17.80;62.50
15003;DHT22;7597;53.590;10.020;2022-09-13T07:36:38;17.70;34.60
15003;DHT22;7597;53.590;10.020;2022-09-13T07:39:05;17.70;35.10
15003;DHT22;7597;53.590;10.020;2022-09-13T07:41:32;17.70;50.30
15003;DHT22;7597;53.590;10.020;2022-09-13T07:43:59;17.70;64.30
15003;DHT22;7597;53.590;10.020;2022-09-13T07:46:27;17.80;70.40
15003;DHT22;7597;53.590;10.020;2022-09-13T07:48:54;17.90;69.60
15003;DHT22;7597;53.590;10.020;2022-09-13T07:51:20;18.10;42.30
15003;DHT22;7597;53.590;10.020;2022-09-13T07:53:46;18.20;15.20
15003;DHT22;7597;53.590;10.020;2022-09-13T07:58:59;18.20;1.00
15003;DHT22;7597;53.590;10.020;2022-09-13T08:01:29;18.30;1.00
15003;DHT22;7597;53.590;10.020;2022-09-13T08:03:56;18.30;1.00
15003;DHT22;7597;53.590;10.020;2022-09-13T08:06:22;18.50;1.00
15003;DHT22;7597;53.590;10.020;2022-09-13T08:08:49;18.60;1.00
15003;DHT22;7597;53.590;10.020;2022-09-13T08:11:17;18.80;1.00
15003;DHT22;7597;53.590;10.020;2022-09-13T08:13:43;18.90;1.00
15003;DHT22;7597;53.590;10.020;2022-09-13T08:16:09;19.10;1.00
15003;DHT22;7597;53.590;10.020;2022-09-13T08:18:36;19.40;1.00
15003;DHT22;7597;53.590;10.020;2022-09-13T08:21:03;19.60;1.00
15003;DHT22;7597;53.590;10.020;2022-09-13T08:23:29;19.60;1.00
15003;DHT22;7597;53.590;10.020;2022-09-13T08:25:59;19.50;1.00
15003;DHT22;7597;53.590;10.020;2022-09-13T08:28:23;19.30;1.00
15003;DHT22;7597;53.590;10.020;2022-09-13T08:30:49;19.10;1.00
15003;DHT22;7597;53.590;10.020;2022-09-13T08:33:16;19.00;1.00
15003;DHT22;7597;53.590;10.020;2022-09-13T08:35:50;19.00;1.00
15003;DHT22;7597;53.590;10.020;2022-09-13T08:38:17;18.90;1.00
15003;DHT22;7597;53.590;10.020;2022-09-13T08:40:47;18.90;1.00
15003;DHT22;7597;53.590;10.020;2022-09-13T08:43:22;19.00;1.00
15003;DHT22;7597;53.590;10.020;2022-09-13T08:45:49;19.10;1.00
15003;DHT22;7597;53.590;10.020;2022-09-13T08:48:17;19.10;1.00
15003;DHT22;7597;53.590;10.020;2022-09-13T08:50:42;19.20;1.00
15003;DHT22;7597;53.590;10.020;2022-09-13T08:53:17;19.40;1.00
15003;DHT22;7597;53.590;10.020;2022-09-13T08:55:46;19.60;1.00
15003;DHT22;7597;53.590;10.020;2022-09-13T08:58:31;19.80;1.00
15003;DHT22;7597;53.590;10.020;2022-09-13T09:00:59;20.00;1.00
15003;DHT22;7597;53.590;10.020;2022-09-13T09:03:41;20.00;1.00
15003;DHT22;7597;53.590;10.020;2022-09-13T09:06:13;20.30;1.00
15003;DHT22;7597;53.590;10.020;2022-09-13T09:08:46;20.80;1.00
15003;DHT22;7597;53.590;10.020;2022-09-13T09:11:19;23.00;1.00
15003;DHT22;7597;53.590;10.020;2022-09-13T09:13:46;23.00;1.00
15003;DHT22;7597;53.590;10.020;2022-09-13T09:16:23;24.50;1.00
15003;DHT22;7597;53.590;10.020;2022-09-13T09:18:43;24.90;1.00
15003;DHT22;7597;53.590;10.020;2022-09-13T09:21:11;26.00;1.00
15003;DHT22;7597;53.590;10.020;2022-09-13T09:23:42;26.70;1.00
15003;DHT22;7597;53.590;10.020;2022-09-13T09:26:25;26.70;1.00
15003;DHT22;7597;53.590;10.020;2022-09-13T09:29:00;26.80;1.00
15003;DHT22;7597;53.590;10.020;2022-09-13T09:31:41;26.30;1.00
15003;DHT22;7597;53.590;10.020;2022-09-13T09:34:14;26.50;1.00
15003;DHT22;7597;53.590;10.020;2022-09-13T09:36:41;26.90;1.00
15003;DHT22;7597;53.590;10.020;2022-09-13T09:39:09;27.40;1.00
15003;DHT22;7597;53.590;10.020;2022-09-13T09:41:33;28.00;1.00
15003;DHT22;7597;53.590;10.020;2022-09-13T09:46:37;28.60;1.00
15003;DHT22;7597;53.590;10.020;2022-09-13T09:51:39;29.30;1.00
15003;DHT22;7597;53.590;10.020;2022-09-13T09:54:05;28.70;1.00
15003;DHT22;7597;53.590;10.020;2022-09-13T09:56:32;28.50;1.00
15003;DHT22;7597;53.590;10.020;2022-09-13T09:58:59;28.60;1.00
15003;DHT22;7597;53.590;10.020;2022-09-13T10:01:28;27.90;1.00
15003;DHT22;7597;53.590;10.020;2022-09-13T10:04:00;27.20;1.00
15003;DHT22;7597;53.590;10.020;2022-09-13T10:06:24;27.00;1.00
15003;DHT22;7597;53.590;10.020;2022-09-13T10:08:55;27.40;1.00
15003;DHT22;7597;53.590;10.020;2022-09-13T10:11:20;28.00;1.00
15003;DHT22;7597;53.590;10.020;2022-09-13T10:13:59;28.40;1.00
15003;DHT22;7597;53.590;10.020;2022-09-13T10:16:25;29.00;1.00
15003;DHT22;7597;53.590;10.020;2022-09-13T10:18:52;29.70;1.00
15003;DHT22;7597;53.590;10.020;2022-09-13T10:21:21;29.90;1.00
15003;DHT22;7597;53.590;10.020;2022-09-13T10:23:47;30.30;1.00
15003;DHT22;7597;53.590;10.020;2022-09-13T10:26:18;30.70;1.00
15003;DHT22;7597;53.590;10.020;2022-09-13T10:28:45;31.70;1.00
15003;DHT22;7597;53.590;10.020;2022-09-13T10:31:11;31.30;1.00
15003;DHT22;7597;53.590;10.020;2022-09-13T10:33:38;30.80;1.00
15003;DHT22;7597;53.590;10.020;2022-09-13T10:36:07;31.00;1.00
15003;DHT22;7597;53.590;10.020;2022-09-13T10:38:36;30.60;1.00
15003;DHT22;7597;53.590;10.020;2022-09-13T10:41:02;31.20;1.00
15003;DHT22;7597;53.590;10.020;2022-09-13T10:43:29;31.50;1.00
15003;DHT22;7597;53.590;10.020;2022-09-13T10:45:56;30.70;1.00
15003;DHT22;7597;53.590;10.020;2022-09-13T10:48:22;30.60;1.00
15003;DHT22;7597;53.590;10.020;2022-09-13T10:51:03;30.50;1.00
15003;DHT22;7597;53.590;10.020;2022-09-13T10:53:34;30.50;1.00
15003;DHT22;7597;53.590;10.020;2022-09-13T10:56:00;31.00;1.00
15003;DHT22;7597;53.590;10.020;2022-09-13T10:58:27;30.80;1.00
15003;DHT22;7597;53.590;10.020;2022-09-13T11:01:12;31.00;1.00
15003;DHT22;7597;53.590;10.020;2022-09-13T11:03:53;30.50;1.00
15003;DHT22;7597;53.590;10.020;2022-09-13T11:06:22;30.80;1.00
15003;DHT22;7597;53.590;10.020;2022-09-13T11:08:52;30.70;1.00
15003;DHT22;7597;53.590;10.020;2022-09-13T11:11:52;30.70;1.00
15003;DHT22;7597;53.590;10.020;2022-09-13T11:14:46;30.70;1.00
15003;DHT22;7597;53.590;10.020;2022-09-13T11:17:19;29.90;1.00
15003;DHT22;7597;53.590;10.020;2022-09-13T11:20:01;28.00;1.00
15003;DHT22;7597;53.590;10.020;2022-09-13T11:38:33;31.50;1.00
15003;DHT22;7597;53.590;10.020;2022-09-13T11:41:09;31.50;1.00
15003;DHT22;7597;53.590;10.020;2022-09-13T11:43:39;31.00;1.00
15003;DHT22;7597;53.590;10.020;2022-09-13T11:46:09;31.00;1.00
15003;DHT22;7597;53.590;10.020;2022-09-13T11:51:15;31.10;1.00
15003;DHT22;7597;53.590;10.020;2022-09-13T11:53:42;31.60;1.00
15003;DHT22;7597;53.590;10.020;2022-09-13T11:56:08;31.50;1.00
15003;DHT22;7597;53.590;10.020;2022-09-13T11:58:36;30.60;1.00
15003;DHT22;7597;53.590;10.020;2022-09-13T12:01:04;30.40;1.00
15003;DHT22;7597;53.590;10.020;2022-09-13T12:03:35;29.50;1.00
15003;DHT22;7597;53.590;10.020;2022-09-13T12:06:02;29.20;1.00
15003;DHT22;7597;53.590;10.020;2022-09-13T12:08:28;28.90;1.00
15003;DHT22;7597;53.590;10.020;2022-09-13T12:10:56;28.40;1.00
15003;DHT22;7597;53.590;10.020;2022-09-13T12:13:27;27.80;1.00
15003;DHT22;7597;53.590;10.020;2022-09-13T12:15:54;27.50;1.00
15003;DHT22;7597;53.590;10.020;2022-09-13T12:21:08;27.80;1.00
15003;DHT22;7597;53.590;10.020;2022-09-13T12:23:38;27.10;1.00
15003;DHT22;7597;53.590;10.020;2022-09-13T12:26:06;27.00;1.00
15003;DHT22;7597;53.590;10.020;2022-09-13T12:28:34;26.60;1.00
15003;DHT22;7597;53.590;10.020;2022-09-13T12:31:03;26.50;1.00
15003;DHT22;7597;53.590;10.020;2022-09-13T12:33:27;26.20;1.00
15003;DHT22;7597;53.590;10.020;2022-09-13T12:38:55;25.70;1.00
15003;DHT22;7597;53.590;10.020;2022-09-13T12:41:26;25.80;1.00
15003;DHT22;7597;53.590;10.020;2022-09-13T12:44:27;25.70;1.00
15003;DHT22;7597;53.590;10.020;2022-09-13T12:46:58;25.90;1.00
15003;DHT22;7597;53.590;10.020;2022-09-13T12:49:28;25.80;1.00
15003;DHT22;7597;53.590;10.020;2022-09-13T12:57:28;25.20;1.00
15003;DHT22;7597;53.590;10.020;2022-09-13T13:00:11;25.00;1.00
15003;DHT22;7597;53.590;10.020;2022-09-13T13:02:39;25.10;1.00
15003;DHT22;7597;53.590;10.020;2022-09-13T13:07:39;25.10;1.00
15003;DHT22;7597;53.590;10.020;2022-09-13T13:10:06;24.90;1.00
15003;DHT22;7597;53.590;10.020;2022-09-13T13:12:36;24.70;1.00
15003;DHT22;7597;53.590;10.020;2022-09-13T13:15:06;24.50;1.00
15003;DHT22;7597;53.590;10.020;2022-09-13T13:17:36;24.80;1.00
15003;DHT22;7597;53.590;10.020;2022-09-13T13:22:53;25.10;1.00
15003;DHT22;7597;53.590;10.020;2022-09-13T13:27:58;25.10;1.00
15003;DHT22;7597;53.590;10.020;2022-09-13T13:30:41;24.70;1.00
15003;DHT22;7597;53.590;10.020;2022-09-13T13:33:16;24.10;1.00
15003;DHT22;7597;53.590;10.020;2022-09-13T13:35:41;23.80;1.00
15003;DHT22;7597;53.590;10.020;2022-09-13T13:38:45;23.70;1.00
15003;DHT22;7597;53.590;10.020;2022-09-13T13:41:01;23.60;1.00
15003;DHT22;7597;53.590;10.020;2022-09-13T13:43:28;23.00;1.00
15003;DHT22;7597;53.590;10.020;2022-09-13T13:45:57;23.00;1.00
15003;DHT22;7597;53.590;10.020;2022-09-13T13:48:33;22.70;1.00
15003;DHT22;7597;53.590;10.020;2022-09-13T13:51:18;22.40;1.00
15003;DHT22;7597;53.590;10.020;2022-09-13T13:53:48;22.00;1.00
15003;DHT22;7597;53.590;10.020;2022-09-13T13:56:23;21.90;1.00
15003;DHT22;7597;53.590;10.020;2022-09-13T13:58:55;22.10;1.00
15003;DHT22;7597;53.590;10.020;2022-09-13T14:01:23;22.60;1.00
15003;DHT22;7597;53.590;10.020;2022-09-13T14:03:50;23.10;1.00
15003;DHT22;7597;53.590;10.020;2022-09-13T14:06:34;23.40;1.00
15003;DHT22;7597;53.590;10.020;2022-09-13T14:09:05;23.10;1.00
15003;DHT22;7597;53.590;10.020;2022-09-13T14:11:50;23.00;1.00
15003;DHT22;7597;53.590;10.020;2022-09-13T14:14:27;22.70;1.00
15003;DHT22;7597;53.590;10.020;2022-09-13T14:19:39;22.50;1.00
15003;DHT22;7597;53.590;10.020;2022-09-13T14:22:22;22.60;1.00
15003;DHT22;7597;53.590;10.020;2022-09-13T14:24:48;22.90;1.00
15003;DHT22;7597;53.590;10.020;2022-09-13T14:27:21;23.20;1.00
15003;DHT22;7597;53.590;10.020;2022-09-13T14:29:47;23.10;1.00
15003;DHT22;7597;53.590;10.020;2022-09-13T14:32:15;23.20;1.00
15003;DHT22;7597;53.590;10.020;2022-09-13T14:34:48;23.10;1.00
15003;DHT22;7597;53.590;10.020;2022-09-13T14:37:15;22.80;1.00
15003;DHT22;7597;53.590;10.020;2022-09-13T14:39:33;22.40;1.00
15003;DHT22;7597;53.590;10.020;2022-09-13T14:42:06;22.40;1.00
15003;DHT22;7597;53.590;10.020;2022-09-13T14:44:28;22.70;1.00
15003;DHT22;7597;53.590;10.020;2022-09-13T14:47:06;23.00;1.00
15003;DHT22;7597;53.590;10.020;2022-09-13T14:49:32;23.00;1.00
15003;DHT22;7597;53.590;10.020;2022-09-13T14:52:00;22.90;1.00
15003;DHT22;7597;53.590;10.020;2022-09-13T14:54:32;22.80;1.00
15003;DHT22;7597;53.590;10.020;2022-09-13T14:56:57;22.50;1.00
15003;DHT22;7597;53.590;10.020;2022-09-13T14:59:32;22.20;1.00
15003;DHT22;7597;53.590;10.020;2022-09-13T15:01:56;21.90;1.00
15003;DHT22;7597;53.590;10.020;2022-09-13T15:04:23;22.00;1.00
15003;DHT22;7597;53.590;10.020;2022-09-13T15:09:28;22.80;1.00
15003;DHT22;7597;53.590;10.020;2022-09-13T15:11:56;22.60;1.00
15003;DHT22;7597;53.590;10.020;2022-09-13T15:14:40;22.50;1.00
15003;DHT22;7597;53.590;10.020;2022-09-13T15:17:09;22.30;1.00
15003;DHT22;7597;53.590;10.020;2022-09-13T15:19:40;22.30;1.00
15003;DHT22;7597;53.590;10.020;2022-09-13T15:22:12;22.20;1.00
15003;DHT22;7597;53.590;10.020;2022-09-13T15:24:38;22.50;1.00
15003;DHT22;7597;53.590;10.020;2022-09-13T15:27:05;22.50;1.00
15003;DHT22;7597;53.590;10.020;2022-09-13T15:29:31;22.50;1.00
15003;DHT22;7597;53.590;10.020;2022-09-13T15:32:01;22.60;1.00
15003;DHT22;7597;53.590;10.020;2022-09-13T15:34:27;22.60;1.00
15003;DHT22;7597;53.590;10.020;2022-09-13T15:37:10;22.80;1.00
15003;DHT22;7597;53.590;10.020;2022-09-13T15:39:43;22.70;1.00
15003;DHT22;7597;53.590;10.020;2022-09-13T15:42:09;22.40;1.00
15003;DHT22;7597;53.590;10.020;2022-09-13T15:44:36;22.10;1.00
15003;DHT22;7597;53.590;10.020;2022-09-13T15:47:02;21.80;1.00
15003;DHT22;7597;53.590;10.020;2022-09-13T15:49:29;21.60;1.00
15003;DHT22;7597;53.590;10.020;2022-09-13T15:51:57;21.10;1.00
15003;DHT22;7597;53.590;10.020;2022-09-13T15:54:24;20.70;1.00
15003;DHT22;7597;53.590;10.020;2022-09-13T15:56:50;20.50;1.00
15003;DHT22;7597;53.590;10.020;2022-09-13T15:59:17;20.40;1.00
15003;DHT22;7597;53.590;10.020;2022-09-13T16:01:43;20.20;1.00
15003;DHT22;7597;53.590;10.020;2022-09-13T16:04:10;20.00;1.00
15003;DHT22;7597;53.590;10.020;2022-09-13T16:06:36;19.90;1.00
15003;DHT22;7597;53.590;10.020;2022-09-13T16:09:10;19.70;1.00
15003;DHT22;7597;53.590;10.020;2022-09-13T16:11:36;19.70;1.00
15003;DHT22;7597;53.590;10.020;2022-09-13T16:14:04;19.40;1.00
15003;DHT22;7597;53.590;10.020;2022-09-13T16:16:31;19.40;1.00
15003;DHT22;7597;53.590;10.020;2022-09-13T16:18:58;19.20;1.00
15003;DHT22;7597;53.590;10.020;2022-09-13T16:21:25;19.20;1.00
15003;DHT22;7597;53.590;10.020;2022-09-13T16:23:51;19.10;1.00
15003;DHT22;7597;53.590;10.020;2022-09-13T16:26:18;19.00;1.00
15003;DHT22;7597;53.590;10.020;2022-09-13T16:28:45;19.00;1.00
15003;DHT22;7597;53.590;10.020;2022-09-13T16:31:11;18.90;1.00
15003;DHT22;7597;53.590;10.020;2022-09-13T16:33:38;18.90;1.00
15003;DHT22;7597;53.590;10.020;2022-09-13T16:36:05;18.90;1.00
15003;DHT22;7597;53.590;10.020;2022-09-13T16:38:31;18.80;1.00
15003;DHT22;7597;53.590;10.020;2022-09-13T16:40:58;18.80;1.00
15003;DHT22;7597;53.590;10.020;2022-09-13T16:43:25;18.70;1.00
15003;DHT22;7597;53.590;10.020;2022-09-13T16:45:51;18.60;1.00
15003;DHT22;7597;53.590;10.020;2022-09-13T16:48:18;18.50;1.00
15003;DHT22;7597;53.590;10.020;2022-09-13T16:50:45;18.50;1.00
15003;DHT22;7597;53.590;10.020;2022-09-13T16:53:11;18.60;1.00
15003;DHT22;7597;53.590;10.020;2022-09-13T16:55:38;18.50;1.00
15003;DHT22;7597;53.590;10.020;2022-09-13T16:58:05;18.50;1.00